Time;durP1;ratioP1;P1;durP2;ratioP2;P2;SDS_P1;SDS_P2;PMS_P1;PMS_P2;Temp;Humidity;BMP_temperature;BMP_pressure;BME280_temperature;BME280_humidity;BME280_pressure;Samples;Min_cycle;Max_cycle;Signal;HPM_P1;HPM_P2
2022/05/14 00:01:01;;;;;;;5.18;4.13;;;;;;;8.60;nan;101056.34;4996598;28;20040;-78
2022/05/14 00:03:29;;;;;;;4.78;3.65;;;;;;;8.58;nan;101055.50;4995232;28;20041;-78
2022/05/14 00:05:59;;;;;;;4.13;3.63;;;;;;;8.52;nan;101051.13;4998312;28;20044;-78
2022/05/14 00:08:28;;;;;;;4.37;3.93;;;;;;;8.46;nan;101049.41;4997221;28;20042;-78
2022/05/14 00:13:41;;;;;;;5.13;3.90;;;;;;;8.43;nan;101041.53;4998774;28;20041;-78
2022/05/14 00:16:10;;;;;;;6.40;4.50;;;;;;;8.39;nan;101045.03;4998920;28;20149;-80
2022/05/14 00:18:37;;;;;;;5.18;4.10;;;;;;;8.36;nan;101034.53;4997148;28;20706;-79
2022/05/14 00:21:05;;;;;;;5.65;4.20;;;;;;;8.35;nan;101042.47;5004228;28;20098;-78
2022/05/14 00:23:32;;;;;;;5.72;4.22;;;;;;;8.34;nan;101045.94;4991866;28;20033;-79
2022/05/14 00:25:59;;;;;;;5.18;3.92;;;;;;;8.26;nan;101039.84;5003293;28;21579;-79
2022/05/14 00:28:27;;;;;;;6.03;4.50;;;;;;;8.22;nan;101044.22;4989421;28;20517;-78
2022/05/14 00:30:55;;;;;;;6.07;4.47;;;;;;;8.21;nan;101044.25;4992810;28;20046;-79
2022/05/14 00:33:22;;;;;;;5.80;4.30;;;;;;;8.16;nan;101042.53;4989725;28;20089;-80
2022/05/14 00:35:49;;;;;;;7.27;4.20;;;;;;;8.08;nan;101049.56;4991886;28;20054;-80
2022/05/14 00:38:16;;;;;;;5.47;4.18;;;;;;;7.96;nan;101044.34;4992834;28;20042;-80
2022/05/14 00:41:03;;;;;;;7.85;4.82;;;;;;;7.87;nan;101039.97;5009936;28;20048;-79
2022/05/14 00:43:31;;;;;;;4.77;4.10;;;;;;;7.80;nan;101034.75;4991669;28;20045;-81
2022/05/14 00:46:07;;;;;;;5.00;4.10;;;;;;;7.75;nan;101044.41;5005326;28;20045;-79
2022/05/14 00:48:38;;;;;;;5.03;4.27;;;;;;;7.70;nan;101031.28;4989808;28;20410;-78
2022/05/14 00:51:06;;;;;;;5.80;4.20;;;;;;;7.72;nan;101031.25;4989756;28;20132;-79
2022/05/14 00:53:36;;;;;;;4.87;4.37;;;;;;;7.69;nan;101037.41;4992431;28;20044;-80
2022/05/14 00:56:06;;;;;;;7.73;4.60;;;;;;;7.57;nan;101034.84;4998909;28;20052;-79
2022/05/14 00:58:52;;;;;;;6.10;4.97;;;;;;;7.53;nan;101030.44;4976966;28;20042;-78
2022/05/14 01:01:19;;;;;;;5.03;4.53;;;;;;;7.44;nan;101026.06;5008865;28;20050;-79
2022/05/14 01:03:46;;;;;;;5.63;4.90;;;;;;;7.42;nan;101034.84;4990821;28;20038;-80
2022/05/14 01:06:15;;;;;;;5.57;4.37;;;;;;;7.43;nan;101044.47;4992016;28;20054;-79
2022/05/14 01:08:43;;;;;;;5.27;4.30;;;;;;;7.40;nan;101041.84;4975309;28;20042;-79
2022/05/14 01:11:13;;;;;;;6.20;5.00;;;;;;;7.42;nan;101042.75;4977733;28;20033;-79
2022/05/14 01:13:40;;;;;;;4.50;4.07;;;;;;;7.42;nan;101034.84;4974700;28;20041;-79
2022/05/14 01:16:09;;;;;;;6.20;4.77;;;;;;;7.48;nan;101029.56;4996733;28;20038;-79
2022/05/14 01:18:36;;;;;;;5.30;4.57;;;;;;;7.50;nan;101033.97;5002640;28;20037;-79
2022/05/14 01:21:14;;;;;;;4.43;4.03;;;;;;;7.49;nan;101026.97;5007460;28;20037;-80
2022/05/14 01:26:40;;;;;;;8.97;4.80;;;;;;;7.54;nan;101035.69;4996026;28;20062;-80
2022/05/14 01:29:10;;;;;;;6.00;4.67;;;;;;;7.58;nan;101039.19;4990702;28;20033;-81
2022/05/14 01:31:38;;;;;;;5.67;4.83;;;;;;;7.59;nan;101036.56;5003018;28;20057;-79
2022/05/14 01:34:10;;;;;;;6.97;4.77;;;;;;;7.61;nan;101031.28;4976856;28;20405;-79
2022/05/14 01:36:38;;;;;;;6.30;5.67;;;;;;;7.62;nan;101030.41;5003353;28;20044;-79
2022/05/14 01:39:06;;;;;;;4.97;4.27;;;;;;;7.66;nan;101033.94;4988733;28;20052;-79
2022/05/14 01:41:34;;;;;;;5.27;4.77;;;;;;;7.69;nan;101029.53;4990890;28;20037;-79
2022/05/14 01:44:01;;;;;;;5.43;4.47;;;;;;;7.76;nan;101043.53;5004381;28;20042;-78
2022/05/14 01:46:28;;;;;;;5.23;4.57;;;;;;;7.71;nan;101027.75;4996416;28;20044;-80
2022/05/14 01:48:55;;;;;;;8.63;5.90;;;;;;;7.81;nan;101033.84;5009143;28;20426;-78
2022/05/14 01:51:22;;;;;;;9.90;5.87;;;;;;;7.83;nan;101033.00;4992084;28;20056;-79
2022/05/14 01:53:49;;;;;;;7.17;5.23;;;;;;;7.81;nan;101040.00;4975453;28;20042;-80
2022/05/14 01:56:16;;;;;;;6.93;5.13;;;;;;;7.88;nan;101043.47;4993994;28;20030;-80
2022/05/14 01:58:43;;;;;;;5.80;4.97;;;;;;;7.91;nan;101043.50;5007610;28;20622;-78
2022/05/14 02:01:14;;;;;;;5.57;4.97;;;;;;;7.90;nan;101045.25;4986405;28;20041;-79
2022/05/14 02:03:44;;;;;;;8.17;5.20;;;;;;;7.85;nan;101036.50;4991355;28;20042;-80
2022/05/14 02:06:11;;;;;;;6.07;4.73;;;;;;;7.87;nan;101034.72;5009797;28;20406;-79
2022/05/14 02:08:38;;;;;;;6.10;4.73;;;;;;;7.89;nan;101029.44;4998324;28;20042;-79
2022/05/14 02:11:07;;;;;;;4.77;4.10;;;;;;;7.85;nan;101033.00;4979014;28;20030;-77
2022/05/14 02:13:35;;;;;;;7.93;4.90;;;;;;;7.84;nan;101024.22;5005693;28;21554;-79
2022/05/14 02:16:03;;;;;;;5.70;5.10;;;;;;;7.84;nan;101034.75;4998252;28;20491;-80
2022/05/14 02:18:32;;;;;;;6.27;4.70;;;;;;;7.74;nan;101027.78;4990795;28;20052;-78
2022/05/14 02:20:59;;;;;;;5.50;4.97;;;;;;;7.69;nan;101024.25;4993198;28;20034;-80
2022/05/14 02:23:26;;;;;;;5.30;4.80;;;;;;;7.63;nan;101021.66;4990111;28;20040;-78
2022/05/14 02:25:53;;;;;;;7.27;4.73;;;;;;;7.59;nan;101028.69;4997397;28;20500;-81
2022/05/14 02:28:20;;;;;;;6.60;4.73;;;;;;;7.51;nan;101019.06;5007558;28;20042;-78
2022/05/14 02:30:47;;;;;;;5.47;4.97;;;;;;;7.41;nan;101028.72;5010061;28;20034;-79
2022/05/14 02:33:14;;;;;;;5.87;4.90;;;;;;;7.40;nan;101026.97;4979534;23;20384;-80
2022/05/14 02:35:42;;;;;;;6.47;4.50;;;;;;;7.27;nan;101026.09;4957153;28;20050;-80
2022/05/14 02:38:09;;;;;;;5.00;4.30;;;;;;;7.20;nan;101026.09;4971671;28;20045;-80
2022/05/14 02:40:36;;;;;;;5.10;4.30;;;;;;;7.18;nan;101036.63;4960735;28;20030;-80
2022/05/14 02:43:02;;;;;;;7.53;5.40;;;;;;;7.16;nan;101033.13;4959396;28;20578;-80
2022/05/14 02:45:30;;;;;;;5.17;4.67;;;;;;;7.09;nan;101030.50;4959160;28;20054;-79
2022/05/14 02:47:57;;;;;;;5.40;4.80;;;;;;;7.03;nan;101031.38;4953162;28;20037;-80
2022/05/14 02:50:24;;;;;;;5.30;4.80;;;;;;;7.01;nan;101028.75;4959370;28;20494;-80
2022/05/14 02:52:51;;;;;;;7.50;5.37;;;;;;;6.94;nan;101031.38;4969903;28;20398;-80
2022/05/14 02:55:18;;;;;;;6.77;5.07;;;;;;;6.89;nan;101028.72;4961034;28;20038;-80
2022/05/14 02:57:45;;;;;;;5.20;4.70;;;;;;;6.83;nan;101020.88;4953780;28;20039;-81
2022/05/14 03:00:16;;;;;;;6.70;5.03;;;;;;;6.84;nan;101030.50;4990036;28;20042;-79
2022/05/14 03:02:44;;;;;;;6.03;4.70;;;;;;;6.77;nan;101028.72;4983183;28;20547;-80
2022/05/14 03:05:12;;;;;;;5.80;5.23;;;;;;;6.71;nan;101024.34;4962281;28;20065;-80
2022/05/14 03:07:40;;;;;;;5.67;4.70;;;;;;;6.64;nan;101011.19;4934880;28;20054;-79
2022/05/14 03:10:08;;;;;;;5.37;4.87;;;;;;;6.64;nan;101027.84;4944138;28;20053;-80
2022/05/14 03:12:36;;;;;;;6.37;5.07;;;;;;;6.61;nan;101021.72;4956491;28;20042;-80
2022/05/14 03:15:05;;;;;;;5.17;4.63;;;;;;;6.62;nan;101018.19;4955286;28;20365;-79
2022/05/14 03:17:34;;;;;;;5.63;4.10;;;;;;;6.56;nan;101019.09;4974446;28;20440;-79
2022/05/14 03:20:06;;;;;;;5.43;4.07;;;;;;;6.53;nan;101024.31;4975717;28;20042;-79
2022/05/14 03:22:34;;;;;;;6.23;4.87;;;;;;;6.58;nan;101029.59;4995557;28;20056;-78
2022/05/14 03:25:02;;;;;;;5.43;4.70;;;;;;;6.48;nan;101013.81;4952355;28;20052;-79
2022/05/14 03:27:29;;;;;;;7.13;4.90;;;;;;;6.47;nan;101019.94;4970597;28;20499;-79
2022/05/14 03:29:57;;;;;;;7.30;4.67;;;;;;;6.47;nan;101013.78;4954147;28;20046;-79
2022/05/14 03:32:25;;;;;;;6.47;4.97;;;;;;;6.47;nan;101014.69;4972547;28;20046;-78
2022/05/14 03:34:54;;;;;;;4.90;4.40;;;;;;;6.46;nan;101012.91;4971865;28;20038;-79
2022/05/14 03:37:23;;;;;;;5.23;4.73;;;;;;;6.51;nan;101012.94;4954304;28;20042;-79
2022/05/14 03:39:50;;;;;;;6.27;5.00;;;;;;;6.62;nan;101016.44;4976105;28;20034;-79
2022/05/14 03:42:18;;;;;;;5.30;4.80;;;;;;;6.54;nan;101023.44;4969321;28;20047;-78
2022/05/14 03:44:48;;;;;;;5.87;4.70;;;;;;;6.56;nan;101034.84;4944572;28;20053;-79
2022/05/14 03:47:15;;;;;;;7.50;4.67;;;;;;;6.59;nan;101032.22;4972877;28;20042;-80
2022/05/14 03:49:43;;;;;;;6.17;5.03;;;;;;;6.58;nan;101040.97;4966846;28;20046;-79
2022/05/14 03:52:10;;;;;;;7.57;5.50;;;;;;;6.62;nan;101034.84;4966376;28;20041;-80
2022/05/14 03:54:38;;;;;;;5.37;4.83;;;;;;;6.60;nan;101040.97;4975583;28;20026;-80
2022/05/14 03:57:08;;;;;;;9.37;5.60;;;;;;;6.66;nan;101047.09;4961266;28;20068;-80
2022/05/14 03:59:35;;;;;;;7.57;4.90;;;;;;;6.72;nan;101033.97;4955927;28;20046;-80
2022/05/14 04:02:04;;;;;;;6.90;4.70;;;;;;;6.85;nan;101040.13;4957355;28;20044;-80
2022/05/14 04:04:31;;;;;;;7.10;5.07;;;;;;;6.93;nan;101040.13;4955706;28;20034;-80
2022/05/14 04:06:59;;;;;;;5.97;4.40;;;;;;;7.02;nan;101027.00;4968156;28;20403;-80
2022/05/14 04:09:26;;;;;;;7.97;5.27;;;;;;;7.14;nan;101024.34;4960256;28;20049;-80
2022/05/14 04:11:54;;;;;;;6.10;5.50;;;;;;;7.23;nan;101029.63;4951276;28;20045;-80
2022/05/14 04:14:22;;;;;;;6.47;5.10;;;;;;;7.33;nan;101020.84;4985812;28;20061;-80
2022/05/14 04:16:49;;;;;;;10.23;5.47;;;;;;;7.45;nan;101027.81;4958661;28;20039;-79
2022/05/14 04:19:19;;;;;;;7.50;6.70;;;;;;;7.70;nan;101026.00;4956141;28;20042;-80
2022/05/14 04:21:47;;;;;;;9.97;6.57;;;;;;;7.85;nan;101031.22;4957512;28;20075;-80
2022/05/14 04:24:14;;;;;;;9.77;7.27;;;;;;;7.99;nan;101028.56;4956667;28;20042;-79
2022/05/14 04:26:42;;;;;;;8.23;6.93;;;;;;;8.13;nan;101029.34;4976190;28;20395;-80
2022/05/14 04:29:09;;;;;;;9.87;6.93;;;;;;;8.20;nan;101027.56;4955705;28;20487;-80
2022/05/14 04:31:36;;;;;;;8.30;6.67;;;;;;;8.34;nan;101028.38;4963206;28;20667;-80
2022/05/14 04:34:03;;;;;;;10.00;6.30;;;;;;;8.51;nan;101027.44;4961345;28;20053;-80
2022/05/14 04:36:31;;;;;;;7.50;6.17;;;;;;;8.61;nan;101029.13;4955545;28;20034;-80
2022/05/14 04:38:58;;;;;;;9.70;6.00;;;;;;;8.76;nan;101030.81;4959291;28;20039;-80
2022/05/14 04:41:30;;;;;;;7.63;6.17;;;;;;;8.92;nan;101029.81;4958434;28;20030;-80
2022/05/14 04:43:58;;;;;;;8.77;6.90;;;;;;;9.12;nan;101027.84;4939602;28;20038;-81
2022/05/14 04:46:25;;;;;;;8.88;5.93;;;;;;;9.24;nan;101025.09;4965569;28;20549;-80
2022/05/14 04:48:53;;;;;;;11.43;5.95;;;;;;;9.43;nan;101031.09;4952343;28;20035;-81
2022/05/14 04:51:21;;;;;;;10.15;5.70;;;;;;;9.61;nan;101027.41;4987030;28;20037;-80
2022/05/14 04:53:48;;;;;;;13.27;6.18;;;;;;;9.74;nan;101036.03;4967129;28;20030;-81
2022/05/14 04:56:15;;;;;;;8.55;4.85;;;;;;;9.82;nan;101037.69;4958550;28;20041;-81
2022/05/14 04:58:42;;;;;;;9.55;5.18;;;;;;;9.92;nan;101034.94;4956419;28;20040;-81
2022/05/14 05:01:09;;;;;;;7.28;4.90;;;;;;;10.03;nan;101039.22;4966098;28;20031;-80
2022/05/14 05:03:36;;;;;;;5.72;4.45;;;;;;;10.04;nan;101042.72;4961343;28;20041;-80
2022/05/14 05:06:04;;;;;;;8.55;5.18;;;;;;;10.16;nan;101035.53;4985658;28;20039;-80
2022/05/14 05:08:33;;;;;;;7.95;5.03;;;;;;;10.23;nan;101043.41;4971751;28;20402;-81
2022/05/14 05:10:59;;;;;;;10.38;4.35;;;;;;;10.28;nan;101036.31;4964371;28;20044;-81
2022/05/14 05:13:28;;;;;;;8.50;4.78;;;;;;;10.41;nan;101049.31;4941759;28;20050;-81
2022/05/14 05:15:55;;;;;;;8.75;4.97;;;;;;;10.53;nan;101042.13;4971721;28;20414;-81
2022/05/14 05:18:23;;;;;;;6.35;4.45;;;;;;;10.63;nan;101044.59;4981074;28;20053;-81
2022/05/14 05:20:52;;;;;;;7.75;4.35;;;;;;;10.69;nan;101046.31;4971066;28;20702;-80
2022/05/14 05:23:21;;;;;;;5.63;4.20;;;;;;;10.72;nan;101038.31;4955187;28;20035;-80
2022/05/14 05:25:49;;;;;;;9.80;4.63;;;;;;;10.82;nan;101044.31;4971838;28;20030;-80
2022/05/14 05:28:16;;;;;;;7.40;5.00;;;;;;;10.92;nan;101049.44;4968669;28;20044;-82
2022/05/14 05:30:43;;;;;;;8.52;5.43;;;;;;;10.90;nan;101042.44;4972369;28;20038;-80
2022/05/14 05:33:12;;;;;;;6.70;4.50;;;;;;;10.97;nan;101039.69;4954298;28;20065;-80
2022/05/14 05:35:39;;;;;;;8.38;4.80;;;;;;;11.04;nan;101048.41;4966290;28;20044;-81
2022/05/14 05:38:06;;;;;;;7.22;4.38;;;;;;;11.09;nan;101050.94;4967726;28;20035;-81
2022/05/14 05:40:33;;;;;;;9.57;4.75;;;;;;;11.00;nan;101052.84;4955435;28;20060;-81
2022/05/14 05:43:00;;;;;;;7.85;4.15;;;;;;;10.98;nan;101057.28;4957660;28;20049;-81
2022/05/14 05:45:27;;;;;;;6.95;4.80;;;;;;;11.02;nan;101055.47;4975802;28;20049;-82
2022/05/14 05:47:55;;;;;;;5.30;3.80;;;;;;;11.09;nan;101058.88;4943001;28;20114;-82
2022/05/14 05:50:22;;;;;;;6.10;4.68;;;;;;;11.18;nan;101056.97;4959384;28;20061;-81
2022/05/14 05:52:51;;;;;;;6.45;3.90;;;;;;;11.31;nan;101062.06;4957236;28;20038;-82
2022/05/14 05:58:04;;;;;;;6.32;3.67;;;;;;;11.47;nan;101060.88;4960224;28;20049;-82
2022/05/14 06:00:32;;;;;;;10.15;4.25;;;;;;;11.39;nan;101070.72;4956800;28;20036;-83
2022/05/14 06:03:00;;;;;;;6.85;4.15;;;;;;;11.38;nan;101061.91;4939907;28;20075;-82
2022/05/14 06:05:27;;;;;;;8.43;4.25;;;;;;;11.51;nan;101067.84;4954672;28;20051;-82
2022/05/14 06:07:53;;;;;;;6.10;4.22;;;;;;;11.59;nan;101065.94;4957817;28;20538;-80
2022/05/14 06:10:22;;;;;;;6.78;4.40;;;;;;;11.59;nan;101073.88;4957704;28;20035;-80
2022/05/14 06:12:49;;;;;;;7.18;4.22;;;;;;;11.71;nan;101072.81;4953224;28;20903;-80
2022/05/14 06:15:19;;;;;;;6.97;3.92;;;;;;;11.89;nan;101072.50;4962127;28;20038;-80
2022/05/14 06:17:49;;;;;;;13.20;4.25;;;;;;;11.91;nan;101067.16;4954685;28;20511;-81
2022/05/14 06:20:17;;;;;;;7.75;4.78;;;;;;;12.05;nan;101078.38;4955899;28;20049;-79
2022/05/14 06:22:44;;;;;;;6.00;4.70;;;;;;;12.15;nan;101082.56;4964977;28;20038;-79
2022/05/14 06:25:12;;;;;;;6.10;3.65;;;;;;;12.25;nan;101076.16;4971529;28;20045;-79
2022/05/14 06:27:39;;;;;;;5.47;3.75;;;;;;;12.27;nan;101084.94;4956469;28;20050;-79
2022/05/14 06:30:07;;;;;;;6.70;4.15;;;;;;;12.42;nan;101088.19;4961404;28;20035;-80
2022/05/14 06:32:34;;;;;;;8.30;3.65;;;;;;;12.55;nan;101079.09;4970851;28;20040;-79
2022/05/14 06:35:01;;;;;;;8.93;4.40;;;;;;;12.81;nan;101083.81;4966966;28;20096;-78
2022/05/14 06:37:28;;;;;;;6.05;4.30;;;;;;;13.08;nan;101075.19;4958325;28;20046;-79
2022/05/14 06:39:55;;;;;;;6.53;4.20;;;;;;;13.29;nan;101071.19;4957306;28;20044;-78
2022/05/14 06:42:22;;;;;;;6.75;4.30;;;;;;;13.56;nan;101074.91;4951466;28;20049;-78
2022/05/14 06:44:49;;;;;;;7.22;4.10;;;;;;;13.69;nan;101083.41;4975510;28;20042;-78
2022/05/14 06:47:16;;;;;;;7.28;3.90;;;;;;;13.73;nan;101070.03;4979022;28;20487;-78
2022/05/14 06:49:43;;;;;;;8.18;4.70;;;;;;;13.90;nan;101079.31;4978453;28;20035;-78
2022/05/14 06:52:13;;;;;;;8.85;4.50;;;;;;;14.01;nan;101072.78;4961739;28;20034;-78
2022/05/14 06:54:41;;;;;;;7.50;3.60;;;;;;;13.81;nan;101075.13;4962828;28;20046;-78
2022/05/14 06:57:09;;;;;;;7.35;4.00;;;;;;;13.93;nan;101074.78;4977249;28;20043;-78
2022/05/14 06:59:36;;;;;;;9.27;4.68;;;;;;;13.92;nan;101073.03;4957807;28;20048;-78
2022/05/14 07:02:03;;;;;;;6.85;4.18;;;;;;;13.93;nan;101079.22;4977108;28;20042;-78
2022/05/14 07:07:17;;;;;;;12.98;4.72;;;;;;;13.96;nan;101095.97;4974620;28;20462;-78
2022/05/14 07:09:44;;;;;;;10.00;5.03;;;;;;;13.97;nan;101094.19;4954531;28;20042;-78
2022/05/14 07:12:12;;;;;;;7.10;4.50;;;;;;;13.91;nan;101103.19;4972193;28;20030;-78
2022/05/14 07:14:44;;;;;;;11.38;4.63;;;;;;;14.12;nan;101098.16;4959032;28;20056;-79
2022/05/14 07:17:11;;;;;;;6.00;3.75;;;;;;;14.35;nan;101099.25;4981255;28;20045;-77
2022/05/14 07:19:39;;;;;;;10.00;4.47;;;;;;;14.41;nan;101095.56;4988075;28;20038;-78
2022/05/14 07:22:07;;;;;;;11.18;4.47;;;;;;;14.39;nan;101094.75;4978525;28;20077;-78
2022/05/14 07:24:34;;;;;;;6.70;4.65;;;;;;;14.55;nan;101111.16;4964840;28;20046;-79
2022/05/14 07:27:03;;;;;;;8.05;4.22;;;;;;;14.78;nan;101102.47;4977528;28;20520;-77
2022/05/14 07:29:31;;;;;;;10.15;5.13;;;;;;;14.84;nan;101100.50;4987443;28;20134;-78
2022/05/14 07:31:58;;;;;;;10.57;4.75;;;;;;;14.81;nan;101107.69;4949776;28;20042;-79
2022/05/14 07:34:25;;;;;;;25.75;6.05;;;;;;;14.82;nan;101094.34;4968569;28;20038;-78
2022/05/14 07:36:59;;;;;;;6.75;3.88;;;;;;;14.99;nan;101090.28;4960731;28;20039;-77
2022/05/14 07:39:31;;;;;;;8.00;4.45;;;;;;;15.17;nan;101100.34;4989486;28;20074;-78
2022/05/14 07:42:00;;;;;;;7.75;4.35;;;;;;;15.37;nan;101097.88;4969875;28;20044;-77
2022/05/14 07:44:30;;;;;;;7.97;4.03;;;;;;;15.48;nan;101095.75;4966683;28;20045;-78
2022/05/14 07:46:58;;;;;;;8.32;4.35;;;;;;;15.65;nan;101097.88;4955991;28;20108;-77
2022/05/14 07:49:25;;;;;;;8.90;4.28;;;;;;;15.57;nan;101093.69;4965098;28;20045;-78
2022/05/14 07:51:53;;;;;;;7.53;4.55;;;;;;;15.63;nan;101093.50;4967714;28;20064;-79
2022/05/14 07:54:21;;;;;;;8.48;3.95;;;;;;;15.55;nan;101098.19;4970461;28;20368;-77
2022/05/14 07:56:48;;;;;;;7.50;3.90;;;;;;;15.53;nan;101100.91;4957336;28;20064;-76
2022/05/14 07:59:15;;;;;;;9.88;4.40;;;;;;;15.43;nan;101096.81;4985776;28;20499;-77
2022/05/14 08:01:42;;;;;;;6.88;4.10;;;;;;;15.48;nan;101101.06;4970655;28;20399;-78
2022/05/14 08:04:10;;;;;;;7.65;4.13;;;;;;;15.53;nan;101092.91;4982482;28;20035;-78
2022/05/14 08:06:36;;;;;;;9.10;4.15;;;;;;;15.61;nan;101088.22;4969715;28;20034;-77
2022/05/14 08:09:04;;;;;;;9.38;4.00;;;;;;;15.60;nan;101089.13;4973486;28;20038;-78
2022/05/14 08:11:31;;;;;;;9.27;4.10;;;;;;;15.66;nan;101090.75;4959697;28;20038;-77
2022/05/14 08:13:59;;;;;;;9.00;3.70;;;;;;;15.83;nan;101096.34;4965423;28;20045;-78
2022/05/14 08:16:26;;;;;;;8.05;3.80;;;;;;;15.99;nan;101094.88;4974361;28;20046;-78
2022/05/14 08:18:53;;;;;;;8.18;3.88;;;;;;;16.10;nan;101083.84;4958147;28;20061;-77
2022/05/14 08:26:52;;;;;;;9.10;4.45;;;;;;;16.33;nan;101083.00;4974831;28;20517;-77
2022/05/14 08:29:20;;;;;;;15.38;4.07;;;;;;;16.25;nan;101066.41;4955272;28;20403;-77
2022/05/14 08:31:48;;;;;;;9.40;4.40;;;;;;;16.11;nan;101072.25;4986597;28;20502;-79
2022/05/14 08:34:15;;;;;;;9.45;3.92;;;;;;;16.24;nan;101062.88;4969503;28;20054;-77
2022/05/14 08:36:42;;;;;;;9.90;4.50;;;;;;;16.46;nan;101067.38;4971410;28;20039;-78
2022/05/14 08:39:10;;;;;;;8.90;4.30;;;;;;;16.51;nan;101076.09;4986061;28;20041;-78
2022/05/14 08:41:40;;;;;;;9.27;3.50;;;;;;;16.69;nan;101072.72;4955484;28;20035;-76
2022/05/14 08:44:11;;;;;;;9.80;4.35;;;;;;;17.00;nan;101076.88;4973996;28;20034;-77
2022/05/14 08:46:42;;;;;;;8.25;3.63;;;;;;;17.30;nan;101064.91;4999372;23;20105;-93
2022/05/14 08:49:17;;;;;;;8.80;3.38;;;;;;;17.36;nan;101075.34;4993088;28;20053;-93
2022/05/14 08:51:51;;;;;;;8.00;3.70;;;;;;;17.41;nan;101068.00;4983049;28;20057;-94
2022/05/14 08:54:19;;;;;;;21.08;5.35;;;;;;;17.25;nan;101066.03;4998229;28;20073;-93
2022/05/14 08:57:15;;;;;;;9.80;3.55;;;;;;;17.37;nan;101071.72;4977496;28;20078;-94
2022/05/14 08:59:55;;;;;;;8.05;3.60;;;;;;;17.89;nan;101074.84;4975526;28;20050;-94
2022/05/14 09:02:40;;;;;;;8.75;3.72;;;;;;;17.96;nan;101076.31;4979526;28;20074;-94
2022/05/14 09:05:11;;;;;;;8.93;3.38;;;;;;;18.14;nan;101076.44;4978441;28;20065;-94
2022/05/14 09:07:40;;;;;;;6.90;3.88;;;;;;;18.49;nan;101074.81;4978418;23;20058;-75
2022/05/14 09:10:22;;;;;;;9.48;4.47;;;;;;;18.72;nan;101084.47;4963122;28;20045;-78
2022/05/14 09:13:16;;;;;;;9.13;3.80;;;;;;;18.50;nan;101071.22;4968351;28;20488;-78
2022/05/14 09:15:46;;;;;;;;;;;;;;;18.37;nan;101072.72;4968940;28;20026;-79
2022/05/14 09:18:20;;;;;;;10.40;3.47;;;;;;;18.73;nan;101081.72;4983964;28;19936;-79
2022/05/14 09:20:50;;;;;;;38.95;6.43;;;;;;;19.02;nan;101074.09;4981853;28;20030;-78
2022/05/14 09:23:30;;;;;;;8.38;3.90;;;;;;;19.05;nan;101072.13;4970718;28;20626;-79
2022/05/14 09:26:01;;;;;;;13.48;3.70;;;;;;;18.61;nan;101074.25;4969351;28;20049;-80
2022/05/14 09:28:36;;;;;;;9.57;3.92;;;;;;;18.61;nan;101081.41;4953594;28;20046;-79
2022/05/14 09:31:03;;;;;;;7.90;3.50;;;;;;;18.72;nan;101071.09;4973779;28;20042;-78
2022/05/14 09:33:40;;;;;;;8.05;3.65;;;;;;;18.71;nan;101082.75;4973472;28;20038;-79
2022/05/14 09:36:28;;;;;;;9.25;3.75;;;;;;;17.79;nan;101089.56;4972431;28;20045;-78
2022/05/14 09:39:06;;;;;;;12.77;4.47;;;;;;;17.85;nan;101078.63;4982089;28;20030;-79
2022/05/14 09:41:44;;;;;;;8.63;3.70;;;;;;;18.00;nan;101085.97;4968026;28;20045;-78
2022/05/14 09:44:18;;;;;;;11.43;3.63;;;;;;;18.17;nan;101089.69;4968764;28;20395;-79
2022/05/14 09:46:45;;;;;;;8.70;3.30;;;;;;;18.19;nan;101075.28;4955071;28;20049;-80
2022/05/14 09:49:23;;;;;;;9.35;3.42;;;;;;;18.44;nan;101077.72;4949614;28;20172;-78
2022/05/14 09:51:59;;;;;;;8.75;3.35;;;;;;;18.59;nan;101078.81;4959879;28;20031;-79
2022/05/14 09:54:30;;;;;;;7.68;3.50;;;;;;;19.20;nan;101070.50;4967180;28;20048;-78
2022/05/14 09:57:19;;;;;;;51.80;7.97;;;;;;;19.95;nan;101072.06;4984454;28;20068;-79
2022/05/14 10:00:16;;;;;;;8.63;3.85;;;;;;;19.68;nan;101072.56;4981281;28;20046;-77
2022/05/14 10:03:27;;;;;;;37.08;7.22;;;;;;;19.13;nan;101091.38;4976968;28;20526;-78
2022/05/14 10:06:20;;;;;;;6.97;3.42;;;;;;;18.84;nan;101081.22;4946737;28;20050;-77
2022/05/14 10:09:16;;;;;;;7.55;3.83;;;;;;;18.46;nan;101086.53;4945373;28;20045;-80
2022/05/14 10:11:47;;;;;;;7.40;3.78;;;;;;;18.34;nan;101089.78;4962657;28;20115;-78
2022/05/14 10:14:26;;;;;;;9.93;3.60;;;;;;;18.63;nan;101096.44;4925318;28;20039;-78
2022/05/14 10:17:02;;;;;;;10.98;4.47;;;;;;;18.99;nan;101079.59;4969625;28;20035;-79
2022/05/14 10:19:34;;;;;;;9.70;3.42;;;;;;;19.29;nan;101094.16;4969977;28;20051;-80
2022/05/14 10:22:19;;;;;;;10.43;4.50;;;;;;;19.84;nan;101083.38;4960969;28;20035;-77
2022/05/14 10:28:08;;;;;;;7.82;3.53;;;;;;;19.64;nan;101081.69;4975549;28;20126;-78
2022/05/14 10:30:46;;;;;;;11.00;4.00;;;;;;;18.93;nan;101093.31;4936613;28;20037;-78
2022/05/14 10:33:18;;;;;;;11.35;3.95;;;;;;;18.85;nan;101096.34;4968511;28;20032;-79
2022/05/14 10:35:45;;;;;;;8.70;4.03;;;;;;;18.79;nan;101093.94;4940417;28;20050;-77
2022/05/14 10:38:19;;;;;;;12.25;3.95;;;;;;;18.82;nan;101083.09;4955776;28;20046;-78
2022/05/14 10:40:48;;;;;;;8.10;4.18;;;;;;;18.86;nan;101082.00;4973600;28;20045;-78
2022/05/14 10:43:49;;;;;;;8.32;3.22;;;;;;;18.70;nan;101086.34;4956475;28;20042;-77
2022/05/14 10:46:19;;;;;;;6.35;3.65;;;;;;;18.86;nan;101090.03;4973582;28;20035;-78
2022/05/14 10:48:56;;;;;;;141.77;20.70;;;;;;;18.95;nan;101089.59;4955508;28;20031;-79
2022/05/14 10:51:25;;;;;;;10.05;4.10;;;;;;;18.71;nan;101088.09;4971350;28;20523;-78
2022/05/14 10:53:52;;;;;;;10.63;3.88;;;;;;;18.20;nan;101097.56;4955594;28;20038;-77
2022/05/14 10:56:24;;;;;;;16.02;4.38;;;;;;;18.07;nan;101096.34;4941657;28;20042;-77
2022/05/14 10:58:51;;;;;;;9.25;4.53;;;;;;;17.83;nan;101098.34;4966495;28;20043;-79
2022/05/14 11:01:33;;;;;;;10.18;4.05;;;;;;;18.07;nan;101105.25;4954976;28;20532;-77
2022/05/14 11:04:25;;;;;;;11.00;3.53;;;;;;;18.72;nan;101088.00;4938007;28;20054;-77
2022/05/14 11:06:53;;;;;;;12.40;5.03;;;;;;;19.23;nan;101097.13;4953098;28;20042;-78
2022/05/14 11:09:23;;;;;;;7.53;3.28;;;;;;;19.11;nan;101089.72;4939811;28;20074;-78
2022/05/14 11:11:55;;;;;;;7.22;3.35;;;;;;;19.13;nan;101083.34;4970524;28;20042;-78
2022/05/14 11:14:22;;;;;;;5.80;3.03;;;;;;;18.40;nan;101086.81;4954449;28;20389;-78
2022/05/14 11:16:52;;;;;;;8.35;3.42;;;;;;;18.47;nan;101098.09;4987558;28;20442;-77
2022/05/14 11:19:31;;;;;;;6.60;3.13;;;;;;;18.88;nan;101098.00;4968288;28;20039;-78
2022/05/14 11:21:59;;;;;;;9.43;3.67;;;;;;;19.50;nan;101086.84;4967963;28;20035;-78
2022/05/14 11:24:38;;;;;;;10.40;3.97;;;;;;;19.94;nan;101097.16;4969723;28;20042;-77
2022/05/14 11:27:05;;;;;;;6.03;3.33;;;;;;;20.07;nan;101098.22;4986925;28;20049;-77
2022/05/14 11:29:48;;;;;;;9.45;4.18;;;;;;;20.08;nan;101086.53;4965648;28;20038;-77
2022/05/14 11:32:18;;;;;;;7.03;3.40;;;;;;;20.04;nan;101090.34;4969479;28;20496;-78
2022/05/14 11:34:59;;;;;;;7.10;3.33;;;;;;;19.30;nan;101100.38;4945839;28;20054;-78
2022/05/14 11:37:32;;;;;;;6.68;2.95;;;;;;;19.05;nan;101108.75;4968799;28;20043;-77
2022/05/14 11:40:19;;;;;;;6.28;3.15;;;;;;;18.65;nan;101102.63;4977863;28;20039;-78
2022/05/14 11:42:49;;;;;;;51.65;7.90;;;;;;;18.83;nan;101098.19;4968755;28;20118;-78
2022/05/14 11:45:23;;;;;;;7.40;3.22;;;;;;;19.36;nan;101100.97;4989048;28;20041;-78
2022/05/14 11:47:57;;;;;;;7.78;3.70;;;;;;;19.62;nan;101097.00;4956316;28;20039;-78
2022/05/14 11:50:32;;;;;;;5.88;3.20;;;;;;;19.51;nan;101093.97;4956333;28;20039;-77
2022/05/14 11:53:10;;;;;;;9.32;3.53;;;;;;;19.48;nan;101094.09;4969764;28;20038;-79
2022/05/14 11:55:53;;;;;;;7.65;3.58;;;;;;;19.31;nan;101104.81;4972141;28;20049;-78
2022/05/14 11:58:24;;;;;;;10.00;3.38;;;;;;;19.03;nan;101107.97;4993041;28;20045;-78
2022/05/14 12:00:52;;;;;;;7.35;3.45;;;;;;;18.88;nan;101101.53;4974764;28;20038;-78
2022/05/14 12:03:43;;;;;;;10.32;3.47;;;;;;;18.99;nan;101107.25;4954410;28;20026;-78
2022/05/14 12:06:35;;;;;;;225.07;34.03;;;;;;;19.33;nan;101100.22;4985583;28;20822;-78
2022/05/14 12:09:20;;;;;;;6.68;3.45;;;;;;;19.73;nan;101101.78;4970916;28;20045;-78
2022/05/14 12:12:18;;;;;;;8.65;3.17;;;;;;;20.16;nan;101103.09;4969065;28;20043;-80
2022/05/14 12:14:45;;;;;;;9.75;3.38;;;;;;;20.11;nan;101110.53;4963785;28;20504;-79
2022/05/14 12:17:19;;;;;;;8.98;3.50;;;;;;;19.68;nan;101104.72;4959492;28;20445;-79
2022/05/14 12:19:52;;;;;;;8.15;3.60;;;;;;;19.57;nan;101112.44;4955336;28;20039;-78